createdAt,value
2022-08-27T00:03:14.007Z,5.53
2022-08-27T00:08:15.948Z,5.63
2022-08-27T00:13:18.221Z,5.75
2022-08-27T00:18:22.820Z,5.63
2022-08-27T00:23:24.850Z,6.60
2022-08-27T00:28:28.818Z,6.53
2022-08-27T00:33:30.907Z,6.53
2022-08-27T00:38:32.906Z,6.35
2022-08-27T00:43:51.908Z,6.32
2022-08-27T00:48:57.431Z,6.55
2022-08-27T00:54:00.047Z,5.75
2022-08-27T00:59:03.266Z,5.93
2022-08-27T01:04:05.978Z,6.90
2022-08-27T01:09:13.410Z,7.35
2022-08-27T01:14:16.013Z,6.85
2022-08-27T01:19:41.080Z,6.97
2022-08-27T01:24:48.870Z,7.82
2022-08-27T01:29:50.737Z,7.50
2022-08-27T01:34:53.794Z,8.48
2022-08-27T01:39:59.016Z,7.75
2022-08-27T01:55:41.903Z,9.25
2022-08-27T02:00:56.647Z,11.50
2022-08-27T02:05:58.914Z,11.25
2022-08-27T02:11:02.096Z,10.73
2022-08-27T02:16:07.896Z,12.13
2022-08-27T02:21:14.547Z,13.45
2022-08-27T02:26:16.998Z,14.98
2022-08-27T02:31:37.365Z,12.32
2022-08-27T02:36:39.170Z,10.88
2022-08-27T02:41:40.983Z,13.02
2022-08-27T02:46:43.060Z,13.30
2022-08-27T02:51:45.443Z,13.25
2022-08-27T02:56:47.138Z,14.13
2022-08-27T03:01:49.145Z,18.52
2022-08-27T03:06:51.116Z,17.08
2022-08-27T03:11:53.667Z,16.85
2022-08-27T03:16:55.772Z,12.40
2022-08-27T03:21:57.480Z,13.25
2022-08-27T03:26:59.455Z,16.35
2022-08-27T03:32:01.433Z,17.60
2022-08-27T03:37:03.297Z,21.98
2022-08-27T03:42:05.465Z,19.38
2022-08-27T03:47:07.274Z,22.23
2022-08-27T03:52:09.976Z,25.35
2022-08-27T03:57:12.137Z,27.77
2022-08-27T04:02:14.817Z,29.65
2022-08-27T04:07:16.737Z,28.67
2022-08-27T04:12:18.540Z,35.45
2022-08-27T04:17:20.394Z,34.78
2022-08-27T04:22:23.517Z,33.10
2022-08-27T04:27:26.558Z,29.73
2022-08-27T04:32:29.591Z,33.40
2022-08-27T04:37:33.247Z,34.35
2022-08-27T04:42:35.117Z,38.05
2022-08-27T04:47:37.022Z,41.35
2022-08-27T04:52:40.927Z,44.67
2022-08-27T04:57:42.961Z,41.80
2022-08-27T05:02:44.724Z,44.58
2022-08-27T05:07:46.813Z,43.15
2022-08-27T05:12:50.090Z,41.65
2022-08-27T05:17:53.677Z,39.53
2022-08-27T05:22:56.381Z,38.80
2022-08-27T05:27:58.105Z,40.35
2022-08-27T05:33:00.496Z,42.13
2022-08-27T05:38:02.361Z,40.65
2022-08-27T05:43:05.349Z,41.25
2022-08-27T05:48:07.284Z,42.03
2022-08-27T05:53:10.897Z,44.25
2022-08-27T05:58:33.860Z,42.90
2022-08-27T06:03:37.868Z,43.05
2022-08-27T06:08:39.662Z,39.60
2022-08-27T06:13:41.369Z,39.72
2022-08-27T06:18:47.953Z,43.28
2022-08-27T06:23:50.126Z,42.63
2022-08-27T06:28:52.366Z,44.25
2022-08-27T06:33:58.171Z,45.97
2022-08-27T06:39:02.405Z,41.20
2022-08-27T06:44:04.486Z,40.83
2022-08-27T06:49:07.133Z,42.28
2022-08-27T06:54:12.171Z,40.95
2022-08-27T06:59:15.868Z,38.13
2022-08-27T07:04:32.434Z,37.35
2022-08-27T07:09:34.871Z,39.65
2022-08-27T07:14:38.242Z,37.97
2022-08-27T07:19:41.212Z,38.35
2022-08-27T07:24:43.285Z,37.55
2022-08-27T07:29:45.020Z,37.33
2022-08-27T07:34:46.912Z,34.35
2022-08-27T07:39:49.108Z,38.05
2022-08-27T07:44:50.874Z,36.78
2022-08-27T07:49:52.676Z,32.47
2022-08-27T07:54:54.580Z,35.63
2022-08-27T07:59:56.372Z,36.47
2022-08-27T08:04:58.197Z,32.47
2022-08-27T08:10:00.351Z,34.72
2022-08-27T08:15:02.983Z,33.08
2022-08-27T08:20:21.773Z,30.67
2022-08-27T08:25:26.080Z,30.60
2022-08-27T08:30:28.525Z,32.28
2022-08-27T08:35:40.740Z,28.90
2022-08-27T08:40:54.639Z,22.58
2022-08-27T08:46:02.414Z,29.10
2022-08-27T08:51:17.618Z,26.70
2022-08-27T08:56:45.219Z,17.35
2022-08-27T09:01:49.700Z,16.08
2022-08-27T09:07:09.548Z,12.85
2022-08-27T09:12:14.853Z,11.82
2022-08-27T09:17:17.409Z,11.95
2022-08-27T09:22:48.934Z,11.73
2022-08-27T09:27:53.451Z,12.32
2022-08-27T09:32:58.421Z,13.05
2022-08-27T09:38:03.361Z,11.30
2022-08-27T09:43:28.550Z,13.30
2022-08-27T09:48:33.368Z,17.20
2022-08-27T09:53:56.120Z,13.73
2022-08-27T09:59:07.146Z,14.15
2022-08-27T10:04:15.270Z,13.00
2022-08-27T10:09:43.077Z,12.90
2022-08-27T10:14:50.079Z,13.63
2022-08-27T10:20:35.791Z,14.85
2022-08-27T10:25:48.932Z,13.85
2022-08-27T10:30:58.624Z,13.52
2022-08-27T10:36:13.037Z,12.43
2022-08-27T10:41:34.714Z,13.23
2022-08-27T10:46:36.530Z,12.02
2022-08-27T10:51:46.979Z,12.25
2022-08-27T10:57:22.853Z,12.07
2022-08-27T11:02:44.306Z,11.60
2022-08-27T11:08:01.879Z,11.15
2022-08-27T11:13:12.466Z,9.10
2022-08-27T11:18:40.394Z,10.00
2022-08-27T11:24:02.650Z,10.38
2022-08-27T11:29:16.347Z,8.68
2022-08-27T11:34:41.373Z,7.80
2022-08-27T11:39:54.760Z,7.53
2022-08-27T11:45:04.725Z,7.65
2022-08-27T11:50:16.050Z,7.40
2022-08-27T11:55:20.941Z,7.17
2022-08-27T12:00:32.786Z,8.65
2022-08-27T12:06:05.241Z,8.93
2022-08-27T12:17:05.096Z,8.98
2022-08-27T12:23:01.664Z,9.70
2022-08-27T12:28:07.560Z,9.13
2022-08-27T12:33:14.692Z,7.72
2022-08-27T12:38:34.946Z,9.57
2022-08-27T12:43:43.363Z,8.85
2022-08-27T12:48:48.393Z,8.88
2022-08-27T12:54:11.754Z,7.70
2022-08-27T12:59:22.493Z,8.93
2022-08-27T13:04:28.238Z,8.52
2022-08-27T13:09:35.970Z,7.43
2022-08-27T13:14:42.260Z,7.72
2022-08-27T13:19:50.604Z,8.77
2022-08-27T13:24:55.343Z,7.63
2022-08-27T13:30:03.102Z,7.85
2022-08-27T13:35:06.546Z,8.43
2022-08-27T13:40:09.662Z,7.82
2022-08-27T13:45:12.469Z,7.80
2022-08-27T13:50:23.505Z,8.63
2022-08-27T14:00:33.369Z,9.45
2022-08-27T14:05:38.093Z,10.07
2022-08-27T14:10:41.285Z,10.00
2022-08-27T14:15:52.809Z,9.45
2022-08-27T14:20:56.118Z,10.73
2022-08-27T14:25:59.677Z,11.45
2022-08-27T14:31:01.555Z,10.40
2022-08-27T14:36:03.696Z,12.35
2022-08-27T14:41:06.669Z,10.82
2022-08-27T14:46:19.431Z,11.05
2022-08-27T14:51:33.403Z,10.70
2022-08-27T14:56:35.724Z,9.95
2022-08-27T15:01:38.012Z,11.38
2022-08-27T15:06:40.336Z,11.40
2022-08-27T15:11:43.009Z,10.43
2022-08-27T15:16:44.846Z,10.05
2022-08-27T15:21:48.127Z,10.90
2022-08-27T15:26:51.837Z,10.70
2022-08-27T15:31:54.119Z,10.93
2022-08-27T15:36:57.075Z,10.45
2022-08-27T15:42:07.093Z,10.55
2022-08-27T15:47:09.072Z,11.13
2022-08-27T15:52:14.207Z,11.07
2022-08-27T15:57:20.419Z,10.75
2022-08-27T16:02:24.262Z,9.60
2022-08-27T16:07:26.565Z,12.07
2022-08-27T16:12:28.894Z,11.32
2022-08-27T16:17:30.644Z,9.80
2022-08-27T16:22:32.993Z,12.23
2022-08-27T16:27:35.213Z,11.27
2022-08-27T16:32:36.909Z,11.82
2022-08-27T16:37:38.617Z,11.50
2022-08-27T16:42:45.925Z,10.80
2022-08-27T16:48:06.405Z,10.48
2022-08-27T16:53:13.164Z,11.20
2022-08-27T16:58:27.141Z,12.02
2022-08-27T17:03:30.526Z,11.07
2022-08-27T17:08:32.380Z,12.00
2022-08-27T17:13:51.694Z,11.43
2022-08-27T17:18:53.628Z,11.45
2022-08-27T17:23:56.682Z,11.00
2022-08-27T17:28:59.425Z,11.43
2022-08-27T17:34:01.549Z,12.23
2022-08-27T17:39:03.685Z,11.50
2022-08-27T17:44:23.208Z,11.88
2022-08-27T17:49:25.718Z,14.00
2022-08-27T17:54:32.769Z,13.30
2022-08-27T17:59:34.720Z,12.68
2022-08-27T18:04:37.743Z,15.05
2022-08-27T18:09:39.925Z,13.50
2022-08-27T18:14:42.401Z,13.98
2022-08-27T18:19:45.815Z,13.07
2022-08-27T18:24:47.702Z,14.25
2022-08-27T18:29:50.133Z,14.18
2022-08-27T18:35:01.185Z,15.38
2022-08-27T18:40:03.289Z,14.68
2022-08-27T18:45:14.557Z,13.95
2022-08-27T18:50:17.751Z,14.65
2022-08-27T18:55:23.273Z,15.90
2022-08-27T19:00:25.400Z,16.67
2022-08-27T19:05:28.317Z,15.55
2022-08-27T19:10:31.654Z,15.80
2022-08-27T19:15:33.544Z,15.68
2022-08-27T19:20:35.282Z,15.98
2022-08-27T19:25:37.536Z,15.50
2022-08-27T19:30:39.223Z,13.95
2022-08-27T19:35:42.023Z,15.93
2022-08-27T19:40:43.800Z,16.58
2022-08-27T19:45:45.661Z,15.02
2022-08-27T19:50:47.601Z,14.80
2022-08-27T19:55:52.619Z,16.70
2022-08-27T20:00:54.425Z,14.70
2022-08-27T20:05:56.301Z,16.77
2022-08-27T20:10:58.132Z,17.08
2022-08-27T20:16:00.123Z,15.32
2022-08-27T20:21:06.053Z,15.18
2022-08-27T20:26:08.452Z,15.93
2022-08-27T20:31:10.297Z,17.63
2022-08-27T20:36:13.001Z,15.40
2022-08-27T20:41:14.739Z,14.70
2022-08-27T20:46:20.317Z,14.48
2022-08-27T20:51:25.701Z,15.20
2022-08-27T20:56:27.450Z,15.07
2022-08-27T21:01:29.635Z,14.30
2022-08-27T21:06:33.458Z,15.90
2022-08-27T21:11:35.756Z,16.45
2022-08-27T21:16:37.482Z,16.33
2022-08-27T21:21:39.277Z,16.73
2022-08-27T21:26:41.107Z,17.27
2022-08-27T21:31:43.049Z,17.02
2022-08-27T21:36:44.767Z,17.70
2022-08-27T21:41:46.817Z,15.35
2022-08-27T21:46:49.848Z,14.25
2022-08-27T21:51:51.785Z,14.27
2022-08-27T21:56:53.541Z,14.98
2022-08-27T22:02:01.085Z,17.85
2022-08-27T22:07:03.344Z,14.85
2022-08-27T22:12:05.978Z,16.73
2022-08-27T22:17:07.725Z,14.90
2022-08-27T22:22:09.527Z,17.48
2022-08-27T22:27:11.322Z,15.05
2022-08-27T22:32:13.420Z,16.02
2022-08-27T22:37:15.160Z,16.60
2022-08-27T22:42:18.210Z,19.17
2022-08-27T22:47:20.129Z,19.42
2022-08-27T22:52:23.215Z,17.33
2022-08-27T22:57:30.163Z,21.58
2022-08-27T23:02:31.981Z,18.30
2022-08-27T23:07:34.028Z,19.58
2022-08-27T23:12:37.271Z,18.05
2022-08-27T23:17:41.210Z,20.70
2022-08-27T23:22:43.188Z,19.73
2022-08-27T23:27:44.961Z,17.73
2022-08-27T23:32:51.168Z,17.08
2022-08-27T23:37:56.526Z,17.30
2022-08-27T23:42:58.634Z,17.20
2022-08-27T23:48:00.366Z,17.83
2022-08-27T23:53:05.018Z,19.50
2022-08-27T23:58:08.619Z,19.55
